sensor_id;sensor_type;location;lat;lon;timestamp;temperature;humidity
44763;DHT22;30483;49.576;6.036;2024-02-14T04:30:21;13.80;99.90
44763;DHT22;30483;49.576;6.036;2024-02-14T04:32:47;13.80;99.90
44763;DHT22;30483;49.576;6.036;2024-02-14T04:35:14;13.80;99.90
44763;DHT22;30483;49.576;6.036;2024-02-14T04:37:40;13.80;99.90
44763;DHT22;30483;49.576;6.036;2024-02-14T04:40:08;13.80;99.90
44763;DHT22;30483;49.576;6.036;2024-02-14T04:42:35;13.90;99.90
44763;DHT22;30483;49.576;6.036;2024-02-14T04:45:01;13.90;99.90
44763;DHT22;30483;49.576;6.036;2024-02-14T04:47:26;13.80;99.90
44763;DHT22;30483;49.576;6.036;2024-02-14T04:49:52;13.80;99.90
44763;DHT22;30483;49.576;6.036;2024-02-14T04:52:18;13.80;99.90
44763;DHT22;30483;49.576;6.036;2024-02-14T04:54:44;13.80;99.90
44763;DHT22;30483;49.576;6.036;2024-02-14T04:57:10;13.80;99.90
44763;DHT22;30483;49.576;6.036;2024-02-14T05:55:38;13.80;99.90
44763;DHT22;30483;49.576;6.036;2024-02-14T05:58:04;13.80;99.90
44763;DHT22;30483;49.576;6.036;2024-02-14T06:00:29;13.80;99.90
44763;DHT22;30483;49.576;6.036;2024-02-14T06:02:55;13.80;99.90
44763;DHT22;30483;49.576;6.036;2024-02-14T06:05:21;13.80;99.90
44763;DHT22;30483;49.576;6.036;2024-02-14T06:07:47;13.80;99.90
44763;DHT22;30483;49.576;6.036;2024-02-14T06:10:13;13.80;99.90
44763;DHT22;30483;49.576;6.036;2024-02-14T06:12:39;13.80;99.90
44763;DHT22;30483;49.576;6.036;2024-02-14T06:15:06;13.90;99.90
44763;DHT22;30483;49.576;6.036;2024-02-14T06:17:33;13.90;99.90
44763;DHT22;30483;49.576;6.036;2024-02-14T06:19:58;13.90;99.90
44763;DHT22;30483;49.576;6.036;2024-02-14T06:22:24;13.80;99.90
44763;DHT22;30483;49.576;6.036;2024-02-14T06:24:50;13.80;99.90
44763;DHT22;30483;49.576;6.036;2024-02-14T06:27:16;13.80;99.90
44763;DHT22;30483;49.576;6.036;2024-02-14T06:29:44;13.70;99.90
44763;DHT22;30483;49.576;6.036;2024-02-14T06:32:13;13.70;99.90
44763;DHT22;30483;49.576;6.036;2024-02-14T06:34:39;13.70;99.90
44763;DHT22;30483;49.576;6.036;2024-02-14T06:37:04;13.70;99.90
44763;DHT22;30483;49.576;6.036;2024-02-14T06:39:30;13.80;99.90
44763;DHT22;30483;49.576;6.036;2024-02-14T06:41:56;13.80;99.90
44763;DHT22;30483;49.576;6.036;2024-02-14T06:44:23;13.80;99.90
44763;DHT22;30483;49.576;6.036;2024-02-14T06:46:49;13.90;99.90
44763;DHT22;30483;49.576;6.036;2024-02-14T06:49:16;13.90;99.90
44763;DHT22;30483;49.576;6.036;2024-02-14T06:51:41;13.90;99.90
44763;DHT22;30483;49.576;6.036;2024-02-14T06:54:07;13.90;99.90
44763;DHT22;30483;49.576;6.036;2024-02-14T06:56:33;13.90;99.90
44763;DHT22;30483;49.576;6.036;2024-02-14T07:40:30;13.90;99.90
44763;DHT22;30483;49.576;6.036;2024-02-14T07:42:59;14.00;99.90
44763;DHT22;30483;49.576;6.036;2024-02-14T07:45:24;14.10;99.90
44763;DHT22;30483;49.576;6.036;2024-02-14T07:47:50;14.10;99.90
44763;DHT22;30483;49.576;6.036;2024-02-14T07:50:16;14.10;99.90
44763;DHT22;30483;49.576;6.036;2024-02-14T07:52:43;13.80;99.90
44763;DHT22;30483;49.576;6.036;2024-02-14T07:55:09;13.50;99.90
44763;DHT22;30483;49.576;6.036;2024-02-14T07:57:38;13.20;99.90
44763;DHT22;30483;49.576;6.036;2024-02-14T08:04:57;13.00;99.90
44763;DHT22;30483;49.576;6.036;2024-02-14T08:07:22;13.00;99.90
44763;DHT22;30483;49.576;6.036;2024-02-14T08:09:48;13.00;99.90
44763;DHT22;30483;49.576;6.036;2024-02-14T10:29:06;13.10;99.90
44763;DHT22;30483;49.576;6.036;2024-02-14T10:33:59;13.70;99.90
44763;DHT22;30483;49.576;6.036;2024-02-14T10:36:26;13.50;99.90
44763;DHT22;30483;49.576;6.036;2024-02-14T10:38:52;13.60;99.90
44763;DHT22;30483;49.576;6.036;2024-02-14T10:41:19;13.50;99.90
44763;DHT22;30483;49.576;6.036;2024-02-14T10:46:21;13.60;99.90
44763;DHT22;30483;49.576;6.036;2024-02-14T10:48:47;13.60;99.90
44763;DHT22;30483;49.576;6.036;2024-02-14T10:51:15;13.60;99.90
44763;DHT22;30483;49.576;6.036;2024-02-14T10:53:44;13.60;99.90
44763;DHT22;30483;49.576;6.036;2024-02-14T10:56:13;13.70;99.90
44763;DHT22;30483;49.576;6.036;2024-02-14T10:58:42;13.70;99.90
44763;DHT22;30483;49.576;6.036;2024-02-14T11:01:08;13.70;99.90
44763;DHT22;30483;49.576;6.036;2024-02-14T11:03:34;13.70;99.90
44763;DHT22;30483;49.576;6.036;2024-02-14T11:06:01;13.70;99.90
44763;DHT22;30483;49.576;6.036;2024-02-14T11:08:29;13.70;99.90
44763;DHT22;30483;49.576;6.036;2024-02-14T11:10:58;13.70;99.90
44763;DHT22;30483;49.576;6.036;2024-02-14T11:13:28;13.70;99.90
44763;DHT22;30483;49.576;6.036;2024-02-14T11:15:57;13.80;99.90
44763;DHT22;30483;49.576;6.036;2024-02-14T11:18:29;13.80;99.90
44763;DHT22;30483;49.576;6.036;2024-02-14T11:21:04;13.80;99.90
44763;DHT22;30483;49.576;6.036;2024-02-14T11:23:31;13.70;99.90
44763;DHT22;30483;49.576;6.036;2024-02-14T11:26:01;13.80;99.90
44763;DHT22;30483;49.576;6.036;2024-02-14T11:28:28;13.80;99.90
44763;DHT22;30483;49.576;6.036;2024-02-14T11:31:01;13.90;99.90
44763;DHT22;30483;49.576;6.036;2024-02-14T11:33:29;14.00;99.90
44763;DHT22;30483;49.576;6.036;2024-02-14T11:35:55;13.90;99.90
44763;DHT22;30483;49.576;6.036;2024-02-14T11:38:22;13.90;99.90
44763;DHT22;30483;49.576;6.036;2024-02-14T11:40:49;14.00;99.90
44763;DHT22;30483;49.576;6.036;2024-02-14T11:43:19;13.90;99.90
44763;DHT22;30483;49.576;6.036;2024-02-14T11:45:47;13.90;99.90
44763;DHT22;30483;49.576;6.036;2024-02-14T11:48:16;13.90;99.90
44763;DHT22;30483;49.576;6.036;2024-02-14T11:50:53;14.00;99.90
44763;DHT22;30483;49.576;6.036;2024-02-14T11:53:19;14.00;99.90
44763;DHT22;30483;49.576;6.036;2024-02-14T11:55:46;13.90;99.90
44763;DHT22;30483;49.576;6.036;2024-02-14T11:58:16;13.90;99.90
44763;DHT22;30483;49.576;6.036;2024-02-14T12:00:43;13.90;99.90
44763;DHT22;30483;49.576;6.036;2024-02-14T12:03:27;13.80;99.90
44763;DHT22;30483;49.576;6.036;2024-02-14T12:05:53;13.80;99.90
44763;DHT22;30483;49.576;6.036;2024-02-14T12:08:19;13.80;99.90
44763;DHT22;30483;49.576;6.036;2024-02-14T12:10:46;13.80;99.90
44763;DHT22;30483;49.576;6.036;2024-02-14T12:13:14;13.80;99.90
44763;DHT22;30483;49.576;6.036;2024-02-14T12:15:47;13.80;99.90
44763;DHT22;30483;49.576;6.036;2024-02-14T12:18:14;13.90;99.90
44763;DHT22;30483;49.576;6.036;2024-02-14T12:20:40;13.80;99.90
44763;DHT22;30483;49.576;6.036;2024-02-14T12:23:07;13.90;99.90
44763;DHT22;30483;49.576;6.036;2024-02-14T12:25:33;13.90;99.90
44763;DHT22;30483;49.576;6.036;2024-02-14T12:27:59;14.10;99.90
44763;DHT22;30483;49.576;6.036;2024-02-14T12:30:48;14.40;99.90
44763;DHT22;30483;49.576;6.036;2024-02-14T12:33:16;14.60;99.90
44763;DHT22;30483;49.576;6.036;2024-02-14T12:35:48;14.60;99.90
44763;DHT22;30483;49.576;6.036;2024-02-14T12:38:16;14.50;99.90
44763;DHT22;30483;49.576;6.036;2024-02-14T12:40:43;14.30;99.90
44763;DHT22;30483;49.576;6.036;2024-02-14T12:43:10;14.00;99.90
44763;DHT22;30483;49.576;6.036;2024-02-14T12:45:36;13.80;99.90
44763;DHT22;30483;49.576;6.036;2024-02-14T12:48:02;13.90;99.90
44763;DHT22;30483;49.576;6.036;2024-02-14T12:50:28;13.80;99.90
44763;DHT22;30483;49.576;6.036;2024-02-14T12:52:53;13.80;99.90
44763;DHT22;30483;49.576;6.036;2024-02-14T12:55:19;13.80;99.90
44763;DHT22;30483;49.576;6.036;2024-02-14T12:57:45;13.80;99.90
44763;DHT22;30483;49.576;6.036;2024-02-14T13:00:11;13.80;99.90
44763;DHT22;30483;49.576;6.036;2024-02-14T13:02:37;13.90;99.90
44763;DHT22;30483;49.576;6.036;2024-02-14T13:05:04;13.90;99.90
44763;DHT22;30483;49.576;6.036;2024-02-14T13:07:31;13.90;99.90
44763;DHT22;30483;49.576;6.036;2024-02-14T13:09:56;13.80;99.90
44763;DHT22;30483;49.576;6.036;2024-02-14T13:12:22;13.90;99.90
44763;DHT22;30483;49.576;6.036;2024-02-14T13:14:48;13.90;99.90
44763;DHT22;30483;49.576;6.036;2024-02-14T13:17:14;13.90;99.90
44763;DHT22;30483;49.576;6.036;2024-02-14T13:19:39;13.90;99.90
44763;DHT22;30483;49.576;6.036;2024-02-14T13:22:05;13.90;99.90
44763;DHT22;30483;49.576;6.036;2024-02-14T13:24:31;14.00;99.90
44763;DHT22;30483;49.576;6.036;2024-02-14T13:26:57;14.00;99.90
44763;DHT22;30483;49.576;6.036;2024-02-14T13:29:25;14.00;99.90
44763;DHT22;30483;49.576;6.036;2024-02-14T13:31:51;14.00;99.90
44763;DHT22;30483;49.576;6.036;2024-02-14T13:34:17;14.00;99.90
44763;DHT22;30483;49.576;6.036;2024-02-14T13:36:48;14.00;99.90
44763;DHT22;30483;49.576;6.036;2024-02-14T13:39:14;14.00;99.90
44763;DHT22;30483;49.576;6.036;2024-02-14T13:41:43;14.00;99.90
44763;DHT22;30483;49.576;6.036;2024-02-14T13:44:10;13.90;99.90
44763;DHT22;30483;49.576;6.036;2024-02-14T13:46:36;13.90;99.90
44763;DHT22;30483;49.576;6.036;2024-02-14T13:49:02;14.00;99.90
44763;DHT22;30483;49.576;6.036;2024-02-14T13:51:28;14.10;99.90
44763;DHT22;30483;49.576;6.036;2024-02-14T13:53:54;14.20;99.90
44763;DHT22;30483;49.576;6.036;2024-02-14T13:56:20;14.30;99.90
44763;DHT22;30483;49.576;6.036;2024-02-14T13:58:48;14.40;99.90
44763;DHT22;30483;49.576;6.036;2024-02-14T14:01:17;14.50;99.90
44763;DHT22;30483;49.576;6.036;2024-02-14T14:03:45;14.60;99.90
44763;DHT22;30483;49.576;6.036;2024-02-14T14:06:12;14.60;99.90
44763;DHT22;30483;49.576;6.036;2024-02-14T14:08:38;14.60;99.90
44763;DHT22;30483;49.576;6.036;2024-02-14T14:11:04;14.60;99.90
44763;DHT22;30483;49.576;6.036;2024-02-14T14:13:30;14.70;99.90
44763;DHT22;30483;49.576;6.036;2024-02-14T14:16:00;14.80;99.90
44763;DHT22;30483;49.576;6.036;2024-02-14T14:18:25;14.80;99.90
44763;DHT22;30483;49.576;6.036;2024-02-14T14:20:51;14.80;99.90
44763;DHT22;30483;49.576;6.036;2024-02-14T14:23:18;14.80;99.90
44763;DHT22;30483;49.576;6.036;2024-02-14T14:25:44;14.90;99.90
44763;DHT22;30483;49.576;6.036;2024-02-14T14:28:10;14.90;99.90
44763;DHT22;30483;49.576;6.036;2024-02-14T14:30:36;14.90;99.90
44763;DHT22;30483;49.576;6.036;2024-02-14T14:33:02;14.90;99.90
44763;DHT22;30483;49.576;6.036;2024-02-14T14:35:29;14.90;99.90
44763;DHT22;30483;49.576;6.036;2024-02-14T14:37:56;15.00;99.90
44763;DHT22;30483;49.576;6.036;2024-02-14T14:40:22;15.00;99.90
44763;DHT22;30483;49.576;6.036;2024-02-14T14:42:48;15.00;99.90
44763;DHT22;30483;49.576;6.036;2024-02-14T14:45:13;15.00;99.90
44763;DHT22;30483;49.576;6.036;2024-02-14T14:47:39;14.90;99.90
44763;DHT22;30483;49.576;6.036;2024-02-14T14:50:05;14.90;99.90
44763;DHT22;30483;49.576;6.036;2024-02-14T14:52:32;14.90;99.90
44763;DHT22;30483;49.576;6.036;2024-02-14T14:54:58;14.90;99.90
44763;DHT22;30483;49.576;6.036;2024-02-14T14:57:23;14.90;99.90
44763;DHT22;30483;49.576;6.036;2024-02-14T14:59:49;14.70;99.90
44763;DHT22;30483;49.576;6.036;2024-02-14T15:02:16;14.80;99.90
44763;DHT22;30483;49.576;6.036;2024-02-14T15:04:41;15.00;99.90
44763;DHT22;30483;49.576;6.036;2024-02-14T15:07:09;15.10;99.90
44763;DHT22;30483;49.576;6.036;2024-02-14T15:09:35;15.20;99.90
44763;DHT22;30483;49.576;6.036;2024-02-14T15:12:00;15.30;99.90
44763;DHT22;30483;49.576;6.036;2024-02-14T15:14:26;15.40;99.90
44763;DHT22;30483;49.576;6.036;2024-02-14T15:16:52;15.30;99.90
44763;DHT22;30483;49.576;6.036;2024-02-14T15:19:18;15.30;99.90
44763;DHT22;30483;49.576;6.036;2024-02-14T15:21:43;15.30;99.90
44763;DHT22;30483;49.576;6.036;2024-02-14T15:24:09;15.30;99.90
44763;DHT22;30483;49.576;6.036;2024-02-14T15:26:35;15.30;99.90
44763;DHT22;30483;49.576;6.036;2024-02-14T15:29:18;15.20;99.90
44763;DHT22;30483;49.576;6.036;2024-02-14T15:32:02;15.20;99.90
44763;DHT22;30483;49.576;6.036;2024-02-14T15:34:47;15.20;99.90
44763;DHT22;30483;49.576;6.036;2024-02-14T15:37:13;15.10;99.90
44763;DHT22;30483;49.576;6.036;2024-02-14T15:39:39;15.10;99.90
44763;DHT22;30483;49.576;6.036;2024-02-14T15:42:05;15.20;99.90
44763;DHT22;30483;49.576;6.036;2024-02-14T15:44:30;15.10;99.90
44763;DHT22;30483;49.576;6.036;2024-02-14T15:46:56;15.10;99.90
44763;DHT22;30483;49.576;6.036;2024-02-14T15:49:22;15.10;99.90
44763;DHT22;30483;49.576;6.036;2024-02-14T15:51:47;15.00;99.90
44763;DHT22;30483;49.576;6.036;2024-02-14T15:54:15;15.10;99.90
44763;DHT22;30483;49.576;6.036;2024-02-14T15:56:42;15.00;99.90
44763;DHT22;30483;49.576;6.036;2024-02-14T15:59:07;15.00;99.90
44763;DHT22;30483;49.576;6.036;2024-02-14T16:01:34;15.00;99.90
44763;DHT22;30483;49.576;6.036;2024-02-14T16:03:59;15.00;99.90
44763;DHT22;30483;49.576;6.036;2024-02-14T16:06:25;15.10;99.90
44763;DHT22;30483;49.576;6.036;2024-02-14T16:08:50;15.00;99.90
44763;DHT22;30483;49.576;6.036;2024-02-14T16:11:19;15.00;99.90
44763;DHT22;30483;49.576;6.036;2024-02-14T16:13:45;15.00;99.90
44763;DHT22;30483;49.576;6.036;2024-02-14T16:16:10;15.00;99.90
44763;DHT22;30483;49.576;6.036;2024-02-14T16:18:36;15.00;99.90
44763;DHT22;30483;49.576;6.036;2024-02-14T16:21:02;15.00;99.90
44763;DHT22;30483;49.576;6.036;2024-02-14T16:23:28;14.90;99.90
44763;DHT22;30483;49.576;6.036;2024-02-14T16:25:53;14.90;99.90
44763;DHT22;30483;49.576;6.036;2024-02-14T16:28:19;14.90;99.90
44763;DHT22;30483;49.576;6.036;2024-02-14T16:30:45;15.00;99.90
44763;DHT22;30483;49.576;6.036;2024-02-14T16:33:11;14.90;99.90
44763;DHT22;30483;49.576;6.036;2024-02-14T16:35:36;14.90;99.90
44763;DHT22;30483;49.576;6.036;2024-02-14T16:38:02;14.90;99.90
44763;DHT22;30483;49.576;6.036;2024-02-14T16:40:28;14.90;99.90
44763;DHT22;30483;49.576;6.036;2024-02-14T16:42:56;14.90;99.90
44763;DHT22;30483;49.576;6.036;2024-02-14T16:45:22;14.90;99.90
44763;DHT22;30483;49.576;6.036;2024-02-14T16:47:48;14.90;99.90
44763;DHT22;30483;49.576;6.036;2024-02-14T16:50:14;15.10;99.90
44763;DHT22;30483;49.576;6.036;2024-02-14T16:52:39;15.00;99.90
44763;DHT22;30483;49.576;6.036;2024-02-14T16:55:05;15.00;99.90
44763;DHT22;30483;49.576;6.036;2024-02-14T16:57:30;15.00;99.90
44763;DHT22;30483;49.576;6.036;2024-02-14T16:59:56;15.00;99.90
44763;DHT22;30483;49.576;6.036;2024-02-14T17:02:22;15.00;99.90
44763;DHT22;30483;49.576;6.036;2024-02-14T17:04:47;15.00;99.90
44763;DHT22;30483;49.576;6.036;2024-02-14T17:07:15;15.00;99.90
44763;DHT22;30483;49.576;6.036;2024-02-14T17:09:40;15.00;99.90
44763;DHT22;30483;49.576;6.036;2024-02-14T17:12:07;14.90;99.90
44763;DHT22;30483;49.576;6.036;2024-02-14T17:14:36;14.90;99.90
44763;DHT22;30483;49.576;6.036;2024-02-14T17:17:03;14.90;99.90
44763;DHT22;30483;49.576;6.036;2024-02-14T17:19:29;14.90;99.90
44763;DHT22;30483;49.576;6.036;2024-02-14T17:21:54;14.80;99.90
44763;DHT22;30483;49.576;6.036;2024-02-14T17:24:20;14.90;99.90
44763;DHT22;30483;49.576;6.036;2024-02-14T17:26:46;14.90;99.90
44763;DHT22;30483;49.576;6.036;2024-02-14T17:29:12;14.80;99.90
44763;DHT22;30483;49.576;6.036;2024-02-14T17:31:38;14.80;99.90
44763;DHT22;30483;49.576;6.036;2024-02-14T17:34:04;14.80;99.90
44763;DHT22;30483;49.576;6.036;2024-02-14T17:36:30;14.90;99.90
44763;DHT22;30483;49.576;6.036;2024-02-14T17:38:56;14.80;99.90
44763;DHT22;30483;49.576;6.036;2024-02-14T17:41:26;14.80;99.90
44763;DHT22;30483;49.576;6.036;2024-02-14T17:43:53;14.80;99.90
44763;DHT22;30483;49.576;6.036;2024-02-14T17:46:22;14.80;99.90
44763;DHT22;30483;49.576;6.036;2024-02-14T17:48:48;14.80;99.90
44763;DHT22;30483;49.576;6.036;2024-02-14T17:51:14;14.80;99.90
44763;DHT22;30483;49.576;6.036;2024-02-14T17:53:40;14.80;99.90
44763;DHT22;30483;49.576;6.036;2024-02-14T17:56:06;14.80;99.90
44763;DHT22;30483;49.576;6.036;2024-02-14T17:58:32;14.80;99.90
44763;DHT22;30483;49.576;6.036;2024-02-14T18:00:58;14.80;99.90
44763;DHT22;30483;49.576;6.036;2024-02-14T18:03:25;14.80;99.90
44763;DHT22;30483;49.576;6.036;2024-02-14T18:05:52;14.80;99.90
44763;DHT22;30483;49.576;6.036;2024-02-14T18:08:17;14.70;99.90
44763;DHT22;30483;49.576;6.036;2024-02-14T18:10:43;14.70;99.90
44763;DHT22;30483;49.576;6.036;2024-02-14T18:13:13;14.80;99.90
44763;DHT22;30483;49.576;6.036;2024-02-14T18:15:39;14.80;99.90
44763;DHT22;30483;49.576;6.036;2024-02-14T18:18:06;14.70;99.90
44763;DHT22;30483;49.576;6.036;2024-02-14T18:20:32;14.70;99.90
44763;DHT22;30483;49.576;6.036;2024-02-14T18:23:01;14.70;99.90
44763;DHT22;30483;49.576;6.036;2024-02-14T18:25:27;14.80;99.90
44763;DHT22;30483;49.576;6.036;2024-02-14T18:27:53;14.80;99.90
44763;DHT22;30483;49.576;6.036;2024-02-14T18:30:20;14.80;99.90
44763;DHT22;30483;49.576;6.036;2024-02-14T18:32:46;14.80;99.90
44763;DHT22;30483;49.576;6.036;2024-02-14T18:35:14;14.90;99.90
44763;DHT22;30483;49.576;6.036;2024-02-14T18:37:40;14.80;99.90
44763;DHT22;30483;49.576;6.036;2024-02-14T18:40:06;14.90;99.90
44763;DHT22;30483;49.576;6.036;2024-02-14T18:42:33;14.90;99.90
44763;DHT22;30483;49.576;6.036;2024-02-14T18:44:59;14.90;99.90
44763;DHT22;30483;49.576;6.036;2024-02-14T18:47:25;14.90;99.90
44763;DHT22;30483;49.576;6.036;2024-02-14T18:49:50;14.90;99.90
44763;DHT22;30483;49.576;6.036;2024-02-14T18:52:16;14.90;99.90
44763;DHT22;30483;49.576;6.036;2024-02-14T18:54:42;14.90;99.90
44763;DHT22;30483;49.576;6.036;2024-02-14T18:57:07;14.90;99.90
44763;DHT22;30483;49.576;6.036;2024-02-14T18:59:38;14.80;99.90
44763;DHT22;30483;49.576;6.036;2024-02-14T19:02:04;14.90;99.90
44763;DHT22;30483;49.576;6.036;2024-02-14T19:04:33;14.80;99.90
44763;DHT22;30483;49.576;6.036;2024-02-14T19:06:59;14.90;99.90
44763;DHT22;30483;49.576;6.036;2024-02-14T19:09:25;14.80;99.90
44763;DHT22;30483;49.576;6.036;2024-02-14T19:11:50;14.80;99.90
44763;DHT22;30483;49.576;6.036;2024-02-14T19:14:18;14.80;99.90
44763;DHT22;30483;49.576;6.036;2024-02-14T19:16:47;14.80;99.90
44763;DHT22;30483;49.576;6.036;2024-02-14T19:19:13;14.80;99.90
44763;DHT22;30483;49.576;6.036;2024-02-14T19:21:40;14.80;99.90
44763;DHT22;30483;49.576;6.036;2024-02-14T19:24:07;14.70;99.90
44763;DHT22;30483;49.576;6.036;2024-02-14T19:26:32;14.80;99.90
44763;DHT22;30483;49.576;6.036;2024-02-14T19:28:58;14.80;99.90
44763;DHT22;30483;49.576;6.036;2024-02-14T19:31:23;14.80;99.90
44763;DHT22;30483;49.576;6.036;2024-02-14T19:33:49;14.80;99.90
44763;DHT22;30483;49.576;6.036;2024-02-14T19:36:15;14.80;99.90
44763;DHT22;30483;49.576;6.036;2024-02-14T19:38:45;14.80;99.90
44763;DHT22;30483;49.576;6.036;2024-02-14T19:41:10;14.80;99.90
44763;DHT22;30483;49.576;6.036;2024-02-14T19:43:36;14.80;99.90
44763;DHT22;30483;49.576;6.036;2024-02-14T19:46:01;14.80;99.90
44763;DHT22;30483;49.576;6.036;2024-02-14T19:48:27;14.80;99.90
44763;DHT22;30483;49.576;6.036;2024-02-14T19:50:56;14.80;99.90
44763;DHT22;30483;49.576;6.036;2024-02-14T19:53:26;14.80;99.90
44763;DHT22;30483;49.576;6.036;2024-02-14T19:56:04;14.80;99.90
44763;DHT22;30483;49.576;6.036;2024-02-14T19:58:41;14.80;99.90
44763;DHT22;30483;49.576;6.036;2024-02-14T20:01:07;14.80;99.90
44763;DHT22;30483;49.576;6.036;2024-02-14T20:03:35;14.70;99.90
44763;DHT22;30483;49.576;6.036;2024-02-14T20:06:03;14.80;99.90
44763;DHT22;30483;49.576;6.036;2024-02-14T20:08:30;14.70;99.90
44763;DHT22;30483;49.576;6.036;2024-02-14T20:10:56;14.70;99.90
44763;DHT22;30483;49.576;6.036;2024-02-14T20:13:23;14.70;99.90
44763;DHT22;30483;49.576;6.036;2024-02-14T20:15:48;14.80;99.90
44763;DHT22;30483;49.576;6.036;2024-02-14T20:18:17;14.80;99.90
44763;DHT22;30483;49.576;6.036;2024-02-14T20:20:43;14.70;99.90
44763;DHT22;30483;49.576;6.036;2024-02-14T20:23:09;14.70;99.90
44763;DHT22;30483;49.576;6.036;2024-02-14T20:25:35;14.80;99.90
44763;DHT22;30483;49.576;6.036;2024-02-14T20:28:01;14.80;99.90
44763;DHT22;30483;49.576;6.036;2024-02-14T20:30:27;14.70;99.90
44763;DHT22;30483;49.576;6.036;2024-02-14T20:32:54;14.70;99.90
44763;DHT22;30483;49.576;6.036;2024-02-14T20:35:20;14.70;99.90
44763;DHT22;30483;49.576;6.036;2024-02-14T20:37:46;14.70;99.90
44763;DHT22;30483;49.576;6.036;2024-02-14T20:40:12;14.70;99.90
44763;DHT22;30483;49.576;6.036;2024-02-14T20:42:39;14.70;99.90
44763;DHT22;30483;49.576;6.036;2024-02-14T20:45:06;14.70;99.90
44763;DHT22;30483;49.576;6.036;2024-02-14T20:47:32;14.60;99.90
44763;DHT22;30483;49.576;6.036;2024-02-14T20:49:58;14.70;99.90
44763;DHT22;30483;49.576;6.036;2024-02-14T20:52:23;14.70;99.90
44763;DHT22;30483;49.576;6.036;2024-02-14T20:54:54;14.60;99.90
44763;DHT22;30483;49.576;6.036;2024-02-14T20:57:19;14.70;99.90
44763;DHT22;30483;49.576;6.036;2024-02-14T20:59:45;14.70;99.90
44763;DHT22;30483;49.576;6.036;2024-02-14T21:02:11;14.70;99.90
44763;DHT22;30483;49.576;6.036;2024-02-14T21:04:36;14.70;99.90
44763;DHT22;30483;49.576;6.036;2024-02-14T21:07:02;14.70;99.90
44763;DHT22;30483;49.576;6.036;2024-02-14T21:09:27;14.70;99.90
44763;DHT22;30483;49.576;6.036;2024-02-14T21:11:54;14.70;99.90
44763;DHT22;30483;49.576;6.036;2024-02-14T21:14:20;14.70;99.90
44763;DHT22;30483;49.576;6.036;2024-02-14T21:16:46;14.80;99.90
44763;DHT22;30483;49.576;6.036;2024-02-14T21:19:12;14.80;99.90
44763;DHT22;30483;49.576;6.036;2024-02-14T21:21:38;14.80;99.90
44763;DHT22;30483;49.576;6.036;2024-02-14T21:24:04;14.80;99.90
44763;DHT22;30483;49.576;6.036;2024-02-14T21:26:30;14.80;99.90
44763;DHT22;30483;49.576;6.036;2024-02-14T21:28:55;14.80;99.90
44763;DHT22;30483;49.576;6.036;2024-02-14T21:31:21;14.80;99.90
44763;DHT22;30483;49.576;6.036;2024-02-14T21:33:49;14.80;99.90
44763;DHT22;30483;49.576;6.036;2024-02-14T21:36:15;14.80;99.90
44763;DHT22;30483;49.576;6.036;2024-02-14T21:38:41;14.80;99.90
44763;DHT22;30483;49.576;6.036;2024-02-14T21:41:06;14.80;99.90
44763;DHT22;30483;49.576;6.036;2024-02-14T21:43:32;14.80;99.90
44763;DHT22;30483;49.576;6.036;2024-02-14T21:45:58;14.70;99.90
44763;DHT22;30483;49.576;6.036;2024-02-14T21:48:24;14.80;99.90
44763;DHT22;30483;49.576;6.036;2024-02-14T21:50:50;14.80;99.90
44763;DHT22;30483;49.576;6.036;2024-02-14T21:53:17;14.80;99.90
44763;DHT22;30483;49.576;6.036;2024-02-14T21:55:43;14.80;99.90
44763;DHT22;30483;49.576;6.036;2024-02-14T21:58:09;14.80;99.90
44763;DHT22;30483;49.576;6.036;2024-02-14T22:00:35;14.70;99.90
44763;DHT22;30483;49.576;6.036;2024-02-14T22:03:00;14.80;99.90
44763;DHT22;30483;49.576;6.036;2024-02-14T22:05:28;14.80;99.90
44763;DHT22;30483;49.576;6.036;2024-02-14T22:07:54;14.80;99.90
44763;DHT22;30483;49.576;6.036;2024-02-14T22:10:19;14.80;99.90
44763;DHT22;30483;49.576;6.036;2024-02-14T22:12:46;14.80;99.90
44763;DHT22;30483;49.576;6.036;2024-02-14T22:15:12;14.80;99.90
44763;DHT22;30483;49.576;6.036;2024-02-14T22:17:38;14.80;99.90
44763;DHT22;30483;49.576;6.036;2024-02-14T22:20:07;14.70;99.90
44763;DHT22;30483;49.576;6.036;2024-02-14T22:22:34;14.70;99.90
44763;DHT22;30483;49.576;6.036;2024-02-14T22:25:00;14.70;99.90
44763;DHT22;30483;49.576;6.036;2024-02-14T22:27:26;14.70;99.90
44763;DHT22;30483;49.576;6.036;2024-02-14T22:29:52;14.60;99.90
44763;DHT22;30483;49.576;6.036;2024-02-14T22:32:18;14.60;99.90
44763;DHT22;30483;49.576;6.036;2024-02-14T22:34:43;14.70;99.90
44763;DHT22;30483;49.576;6.036;2024-02-14T22:37:09;14.70;99.90
44763;DHT22;30483;49.576;6.036;2024-02-14T22:39:34;14.70;99.90
44763;DHT22;30483;49.576;6.036;2024-02-14T22:42:00;14.70;99.90
44763;DHT22;30483;49.576;6.036;2024-02-14T22:44:27;14.70;99.90
44763;DHT22;30483;49.576;6.036;2024-02-14T22:46:52;14.60;99.90
44763;DHT22;30483;49.576;6.036;2024-02-14T22:49:18;14.70;99.90
44763;DHT22;30483;49.576;6.036;2024-02-14T22:51:44;14.70;99.90
44763;DHT22;30483;49.576;6.036;2024-02-14T22:54:10;14.70;99.90
